sensor_id;sensor_type;location;lat;lon;timestamp;pressure;altitude;pressure_sealevel;temperature;humidity
1401;BME280;46518;48.842;8.926;2022-10-03T00:01:50;97928.38;;;12.08;100.00
1401;BME280;46518;48.842;8.926;2022-10-03T00:04:36;97933.19;;;12.12;100.00
1401;BME280;46518;48.842;8.926;2022-10-03T00:07:15;97945.91;;;12.15;100.00
1401;BME280;46518;48.842;8.926;2022-10-03T00:09:58;97947.88;;;12.07;100.00
1401;BME280;46518;48.842;8.926;2022-10-03T00:12:44;97948.13;;;12.06;100.00
1401;BME280;46518;48.842;8.926;2022-10-03T00:15:20;97934.25;;;11.99;100.00
1401;BME280;46518;48.842;8.926;2022-10-03T00:17:59;97962.78;;;12.14;100.00
1401;BME280;46518;48.842;8.926;2022-10-03T00:20:39;97955.09;;;12.12;100.00
1401;BME280;46518;48.842;8.926;2022-10-03T00:23:17;97961.53;;;12.04;100.00
1401;BME280;46518;48.842;8.926;2022-10-03T00:25:54;97956.81;;;12.18;100.00
1401;BME280;46518;48.842;8.926;2022-10-03T00:28:53;97959.09;;;12.15;100.00
1401;BME280;46518;48.842;8.926;2022-10-03T00:31:36;97958.31;;;12.14;100.00
1401;BME280;46518;48.842;8.926;2022-10-03T00:34:19;97958.53;;;12.13;100.00
1401;BME280;46518;48.842;8.926;2022-10-03T00:37:09;97978.16;;;12.17;100.00
1401;BME280;46518;48.842;8.926;2022-10-03T00:39:54;97984.56;;;12.21;100.00
1401;BME280;46518;48.842;8.926;2022-10-03T00:42:49;97987.75;;;12.23;100.00
1401;BME280;46518;48.842;8.926;2022-10-03T00:45:47;97981.09;;;12.20;100.00
1401;BME280;46518;48.842;8.926;2022-10-03T00:51:37;97977.50;;;12.38;100.00
1401;BME280;46518;48.842;8.926;2022-10-03T00:54:20;97984.38;;;12.39;100.00
1401;BME280;46518;48.842;8.926;2022-10-03T00:57:23;97986.22;;;12.39;100.00
1401;BME280;46518;48.842;8.926;2022-10-03T01:00:10;97988.88;;;12.39;100.00
1401;BME280;46518;48.842;8.926;2022-10-03T01:02:57;97983.50;;;12.34;100.00
1401;BME280;46518;48.842;8.926;2022-10-03T01:05:38;97979.59;;;12.36;100.00
1401;BME280;46518;48.842;8.926;2022-10-03T01:08:33;97984.16;;;12.41;100.00
1401;BME280;46518;48.842;8.926;2022-10-03T01:11:14;97973.69;;;12.46;100.00
1401;BME280;46518;48.842;8.926;2022-10-03T01:13:58;97975.94;;;12.54;100.00
1401;BME280;46518;48.842;8.926;2022-10-03T01:16:34;97979.38;;;12.55;100.00
1401;BME280;46518;48.842;8.926;2022-10-03T01:19:21;97982.22;;;12.65;100.00
1401;BME280;46518;48.842;8.926;2022-10-03T01:22:06;97989.16;;;12.54;100.00
1401;BME280;46518;48.842;8.926;2022-10-03T01:24:50;97989.06;;;12.49;100.00
1401;BME280;46518;48.842;8.926;2022-10-03T01:27:30;97990.72;;;12.38;100.00
1401;BME280;46518;48.842;8.926;2022-10-03T01:30:04;97996.53;;;12.40;100.00
1401;BME280;46518;48.842;8.926;2022-10-03T01:32:54;97989.34;;;12.36;100.00
1401;BME280;46518;48.842;8.926;2022-10-03T01:35:34;97994.63;;;12.36;100.00
1401;BME280;46518;48.842;8.926;2022-10-03T01:38:13;97994.06;;;12.34;100.00
1401;BME280;46518;48.842;8.926;2022-10-03T01:40:52;98003.81;;;12.33;100.00
1401;BME280;46518;48.842;8.926;2022-10-03T01:43:35;97982.03;;;12.26;100.00
1401;BME280;46518;48.842;8.926;2022-10-03T01:46:16;98001.63;;;12.30;100.00
1401;BME280;46518;48.842;8.926;2022-10-03T01:48:55;98003.50;;;12.18;100.00
1401;BME280;46518;48.842;8.926;2022-10-03T01:51:37;98017.28;;;12.08;100.00
1401;BME280;46518;48.842;8.926;2022-10-03T01:54:19;98021.97;;;12.18;100.00
1401;BME280;46518;48.842;8.926;2022-10-03T01:57:00;98018.91;;;12.09;100.00
1401;BME280;46518;48.842;8.926;2022-10-03T01:59:36;98025.53;;;12.12;100.00
1401;BME280;46518;48.842;8.926;2022-10-03T02:02:35;98025.75;;;12.10;100.00
1401;BME280;46518;48.842;8.926;2022-10-03T02:05:16;98026.91;;;12.14;100.00
1401;BME280;46518;48.842;8.926;2022-10-03T02:07:54;98030.13;;;12.16;100.00
1401;BME280;46518;48.842;8.926;2022-10-03T02:10:34;98032.19;;;12.02;100.00
1401;BME280;46518;48.842;8.926;2022-10-03T02:13:12;98025.34;;;12.01;100.00
1401;BME280;46518;48.842;8.926;2022-10-03T02:15:54;98016.84;;;12.11;100.00
1401;BME280;46518;48.842;8.926;2022-10-03T02:18:37;98024.59;;;12.18;100.00
1401;BME280;46518;48.842;8.926;2022-10-03T02:21:16;98027.72;;;12.15;100.00
1401;BME280;46518;48.842;8.926;2022-10-03T02:24:00;98027.03;;;12.07;100.00
1401;BME280;46518;48.842;8.926;2022-10-03T02:30:05;98031.19;;;12.03;100.00
1401;BME280;46518;48.842;8.926;2022-10-03T02:45:04;98023.50;;;12.02;100.00
1401;BME280;46518;48.842;8.926;2022-10-03T02:51:43;98032.09;;;11.97;100.00
1401;BME280;46518;48.842;8.926;2022-10-03T03:04:16;98014.06;;;11.82;100.00
1401;BME280;46518;48.842;8.926;2022-10-03T03:13:17;98005.03;;;11.66;100.00
1401;BME280;46518;48.842;8.926;2022-10-03T03:16:41;98005.50;;;11.63;100.00
1401;BME280;46518;48.842;8.926;2022-10-03T03:19:48;98015.00;;;11.53;100.00
1401;BME280;46518;48.842;8.926;2022-10-03T03:22:33;98008.22;;;11.45;100.00
1401;BME280;46518;48.842;8.926;2022-10-03T03:25:25;98013.63;;;11.50;100.00
1401;BME280;46518;48.842;8.926;2022-10-03T03:28:14;98010.19;;;11.50;100.00
1401;BME280;46518;48.842;8.926;2022-10-03T03:30:58;98008.59;;;11.49;100.00
1401;BME280;46518;48.842;8.926;2022-10-03T03:33:41;98012.94;;;11.31;100.00
1401;BME280;46518;48.842;8.926;2022-10-03T03:36:21;98010.28;;;11.43;100.00
1401;BME280;46518;48.842;8.926;2022-10-03T03:39:05;98009.16;;;11.39;100.00
1401;BME280;46518;48.842;8.926;2022-10-03T03:41:50;98010.66;;;11.47;100.00
1401;BME280;46518;48.842;8.926;2022-10-03T03:44:41;98013.97;;;11.42;100.00
1401;BME280;46518;48.842;8.926;2022-10-03T03:47:29;98006.50;;;11.27;100.00
1401;BME280;46518;48.842;8.926;2022-10-03T03:50:21;98008.22;;;11.21;100.00
1401;BME280;46518;48.842;8.926;2022-10-03T03:53:18;98017.13;;;11.20;100.00
1401;BME280;46518;48.842;8.926;2022-10-03T03:56:07;98022.75;;;11.12;100.00
1401;BME280;46518;48.842;8.926;2022-10-03T03:58:53;98023.91;;;11.16;100.00
1401;BME280;46518;48.842;8.926;2022-10-03T04:01:48;98032.47;;;11.12;100.00
1401;BME280;46518;48.842;8.926;2022-10-03T04:04:38;98023.19;;;11.09;100.00
1401;BME280;46518;48.842;8.926;2022-10-03T04:07:25;98028.69;;;11.08;100.00
1401;BME280;46518;48.842;8.926;2022-10-03T04:10:21;98031.22;;;11.14;100.00
1401;BME280;46518;48.842;8.926;2022-10-03T04:13:26;98024.59;;;11.12;100.00
1401;BME280;46518;48.842;8.926;2022-10-03T04:16:15;98029.84;;;11.12;100.00
1401;BME280;46518;48.842;8.926;2022-10-03T04:19:13;98037.41;;;11.20;100.00
1401;BME280;46518;48.842;8.926;2022-10-03T04:25:15;98030.91;;;11.22;100.00
1401;BME280;46518;48.842;8.926;2022-10-03T04:27:58;98037.44;;;11.32;100.00
1401;BME280;46518;48.842;8.926;2022-10-03T04:30:34;98035.59;;;11.32;100.00
1401;BME280;46518;48.842;8.926;2022-10-03T04:33:16;98047.41;;;11.30;100.00
1401;BME280;46518;48.842;8.926;2022-10-03T04:38:50;98049.03;;;11.31;100.00
1401;BME280;46518;48.842;8.926;2022-10-03T04:41:27;98047.41;;;11.30;100.00
1401;BME280;46518;48.842;8.926;2022-10-03T04:44:07;98055.22;;;11.36;100.00
1401;BME280;46518;48.842;8.926;2022-10-03T04:46:45;98052.34;;;11.38;100.00
1401;BME280;46518;48.842;8.926;2022-10-03T04:49:23;98049.94;;;11.36;100.00
1401;BME280;46518;48.842;8.926;2022-10-03T04:52:02;98047.88;;;11.27;100.00
1401;BME280;46518;48.842;8.926;2022-10-03T04:54:40;98053.84;;;11.34;100.00
1401;BME280;46518;48.842;8.926;2022-10-03T04:57:22;98053.25;;;11.32;100.00
1401;BME280;46518;48.842;8.926;2022-10-03T05:00:03;98054.88;;;11.44;100.00
1401;BME280;46518;48.842;8.926;2022-10-03T05:02:44;98062.69;;;11.51;100.00
1401;BME280;46518;48.842;8.926;2022-10-03T05:08:44;98052.59;;;11.60;100.00
1401;BME280;46518;48.842;8.926;2022-10-03T05:11:21;98058.34;;;11.57;100.00
1401;BME280;46518;48.842;8.926;2022-10-03T05:13:58;98056.97;;;11.66;100.00
1401;BME280;46518;48.842;8.926;2022-10-03T05:16:35;98051.81;;;11.71;100.00
1401;BME280;46518;48.842;8.926;2022-10-03T05:19:40;98065.13;;;11.88;100.00
1401;BME280;46518;48.842;8.926;2022-10-03T05:22:20;98063.19;;;11.95;100.00
1401;BME280;46518;48.842;8.926;2022-10-03T05:24:59;98071.34;;;11.94;100.00
1401;BME280;46518;48.842;8.926;2022-10-03T05:27:35;98074.19;;;11.92;100.00
1401;BME280;46518;48.842;8.926;2022-10-03T05:30:19;98073.28;;;11.98;100.00
1401;BME280;46518;48.842;8.926;2022-10-03T05:32:56;98083.97;;;12.03;100.00
1401;BME280;46518;48.842;8.926;2022-10-03T05:35:47;98090.13;;;11.97;100.00
1401;BME280;46518;48.842;8.926;2022-10-03T05:38:37;98097.16;;;11.92;100.00
1401;BME280;46518;48.842;8.926;2022-10-03T05:41:19;98095.97;;;11.76;100.00
1401;BME280;46518;48.842;8.926;2022-10-03T05:44:00;98108.31;;;11.75;100.00
1401;BME280;46518;48.842;8.926;2022-10-03T05:46:40;98103.28;;;11.85;100.00
1401;BME280;46518;48.842;8.926;2022-10-03T05:49:47;98106.75;;;11.86;100.00
1401;BME280;46518;48.842;8.926;2022-10-03T05:55:31;98113.03;;;11.85;100.00
1401;BME280;46518;48.842;8.926;2022-10-03T05:58:24;98100.00;;;11.90;100.00
1401;BME280;46518;48.842;8.926;2022-10-03T06:01:17;98104.47;;;11.90;100.00
1401;BME280;46518;48.842;8.926;2022-10-03T06:04:22;98105.53;;;11.89;100.00
1401;BME280;46518;48.842;8.926;2022-10-03T06:07:08;98110.41;;;11.85;100.00
1401;BME280;46518;48.842;8.926;2022-10-03T06:10:05;98107.34;;;11.88;100.00
1401;BME280;46518;48.842;8.926;2022-10-03T06:12:46;98113.44;;;11.89;100.00
1401;BME280;46518;48.842;8.926;2022-10-03T06:15:32;98118.25;;;11.92;100.00
1401;BME280;46518;48.842;8.926;2022-10-03T06:18:22;98113.84;;;11.85;100.00
1401;BME280;46518;48.842;8.926;2022-10-03T06:21:13;98117.31;;;11.86;100.00
1401;BME280;46518;48.842;8.926;2022-10-03T06:24:24;98116.72;;;11.84;100.00
1401;BME280;46518;48.842;8.926;2022-10-03T06:27:48;98121.41;;;11.82;100.00
1401;BME280;46518;48.842;8.926;2022-10-03T06:30:31;98125.44;;;11.84;100.00
1401;BME280;46518;48.842;8.926;2022-10-03T06:36:33;98130.91;;;11.83;100.00
1401;BME280;46518;48.842;8.926;2022-10-03T06:39:31;98142.91;;;11.97;100.00
1401;BME280;46518;48.842;8.926;2022-10-03T06:42:15;98145.53;;;11.97;100.00
1401;BME280;46518;48.842;8.926;2022-10-03T06:51:35;98144.16;;;12.30;100.00
1401;BME280;46518;48.842;8.926;2022-10-03T06:58:04;98148.31;;;12.14;100.00
1401;BME280;46518;48.842;8.926;2022-10-03T07:00:47;98157.59;;;12.17;100.00
1401;BME280;46518;48.842;8.926;2022-10-03T07:06:59;98161.41;;;12.21;100.00
1401;BME280;46518;48.842;8.926;2022-10-03T07:19:09;98165.84;;;12.20;100.00
1401;BME280;46518;48.842;8.926;2022-10-03T07:45:06;98183.06;;;12.23;100.00
1401;BME280;46518;48.842;8.926;2022-10-03T07:47:59;98186.88;;;12.27;100.00
1401;BME280;46518;48.842;8.926;2022-10-03T07:50:56;98186.66;;;12.28;99.72
1401;BME280;46518;48.842;8.926;2022-10-03T07:54:10;98186.41;;;12.18;99.50
1401;BME280;46518;48.842;8.926;2022-10-03T07:56:59;98180.00;;;12.26;99.48
1401;BME280;46518;48.842;8.926;2022-10-03T08:05:57;98192.97;;;12.16;99.23
1401;BME280;46518;48.842;8.926;2022-10-03T08:11:48;98208.78;;;12.04;98.38
1401;BME280;46518;48.842;8.926;2022-10-03T08:14:39;98189.72;;;12.14;98.38
1401;BME280;46518;48.842;8.926;2022-10-03T08:23:43;98204.09;;;12.41;97.86
1401;BME280;46518;48.842;8.926;2022-10-03T08:26:26;98210.75;;;12.56;97.94
1401;BME280;46518;48.842;8.926;2022-10-03T08:32:38;98210.38;;;12.64;97.68
1401;BME280;46518;48.842;8.926;2022-10-03T08:35:37;98209.00;;;12.73;97.79
1401;BME280;46518;48.842;8.926;2022-10-03T08:38:31;98206.91;;;12.75;97.85
1401;BME280;46518;48.842;8.926;2022-10-03T08:42:00;98203.59;;;12.80;97.72
1401;BME280;46518;48.842;8.926;2022-10-03T08:45:00;98212.78;;;12.77;97.61
1401;BME280;46518;48.842;8.926;2022-10-03T08:47:52;98202.94;;;12.61;96.59
1401;BME280;46518;48.842;8.926;2022-10-03T08:50:42;98189.50;;;12.39;96.63
1401;BME280;46518;48.842;8.926;2022-10-03T08:53:47;98203.84;;;12.55;96.39
1401;BME280;46518;48.842;8.926;2022-10-03T08:57:01;98205.22;;;12.69;96.67
1401;BME280;46518;48.842;8.926;2022-10-03T09:09:57;98207.28;;;13.19;97.05
1401;BME280;46518;48.842;8.926;2022-10-03T09:12:53;98207.28;;;13.19;96.71
1401;BME280;46518;48.842;8.926;2022-10-03T09:22:01;98202.78;;;13.31;96.01
1401;BME280;46518;48.842;8.926;2022-10-03T09:25:09;98195.44;;;13.33;95.50
1401;BME280;46518;48.842;8.926;2022-10-03T09:28:28;98201.03;;;13.37;95.41
1401;BME280;46518;48.842;8.926;2022-10-03T09:31:24;98199.84;;;13.45;95.50
1401;BME280;46518;48.842;8.926;2022-10-03T09:34:12;98194.66;;;13.50;95.20
1401;BME280;46518;48.842;8.926;2022-10-03T09:37:18;98191.38;;;13.59;95.31
1401;BME280;46518;48.842;8.926;2022-10-03T09:47:02;98191.69;;;13.92;95.30
1401;BME280;46518;48.842;8.926;2022-10-03T09:59:59;98188.88;;;14.15;93.34
1401;BME280;46518;48.842;8.926;2022-10-03T10:03:19;98187.59;;;14.01;92.39
1401;BME280;46518;48.842;8.926;2022-10-03T10:06:10;98177.16;;;13.94;91.69
1401;BME280;46518;48.842;8.926;2022-10-03T10:15:26;98199.66;;;13.63;88.56
1401;BME280;46518;48.842;8.926;2022-10-03T10:18:26;98200.13;;;13.60;88.26
1401;BME280;46518;48.842;8.926;2022-10-03T10:33:59;98195.28;;;13.86;90.15
1401;BME280;46518;48.842;8.926;2022-10-03T10:40:06;98204.34;;;14.07;91.20
1401;BME280;46518;48.842;8.926;2022-10-03T10:49:44;98203.78;;;14.21;90.67
1401;BME280;46518;48.842;8.926;2022-10-03T10:55:56;98195.84;;;13.88;84.88
1401;BME280;46518;48.842;8.926;2022-10-03T11:05:35;98183.25;;;13.78;82.33
1401;BME280;46518;48.842;8.926;2022-10-03T11:08:46;98192.00;;;13.78;81.63
1401;BME280;46518;48.842;8.926;2022-10-03T11:11:38;98186.22;;;13.81;80.93
1401;BME280;46518;48.842;8.926;2022-10-03T11:17:59;98178.03;;;14.00;79.58
1401;BME280;46518;48.842;8.926;2022-10-03T11:27:51;98182.94;;;14.08;76.10
1401;BME280;46518;48.842;8.926;2022-10-03T11:34:46;98187.59;;;14.01;72.75
1401;BME280;46518;48.842;8.926;2022-10-03T11:37:43;98173.78;;;13.99;72.62
1401;BME280;46518;48.842;8.926;2022-10-03T11:40:35;98184.19;;;14.22;73.85
1401;BME280;46518;48.842;8.926;2022-10-03T11:53:17;98174.91;;;14.20;76.56
1401;BME280;46518;48.842;8.926;2022-10-03T11:56:04;98180.09;;;14.32;77.70
1401;BME280;46518;48.842;8.926;2022-10-03T11:59:19;98176.50;;;14.38;78.87
1401;BME280;46518;48.842;8.926;2022-10-03T12:02:15;98180.50;;;14.40;79.19
1401;BME280;46518;48.842;8.926;2022-10-03T12:05:00;98172.06;;;14.43;78.90
1401;BME280;46518;48.842;8.926;2022-10-03T12:07:47;98167.56;;;14.44;77.70
1401;BME280;46518;48.842;8.926;2022-10-03T12:10:51;98168.19;;;14.51;78.05
1401;BME280;46518;48.842;8.926;2022-10-03T12:13:36;98169.16;;;14.62;79.20
1401;BME280;46518;48.842;8.926;2022-10-03T12:16:26;98163.13;;;14.66;79.39
1401;BME280;46518;48.842;8.926;2022-10-03T12:19:17;98169.47;;;14.65;78.14
1401;BME280;46518;48.842;8.926;2022-10-03T12:22:07;98169.06;;;14.74;77.87
1401;BME280;46518;48.842;8.926;2022-10-03T12:24:50;98160.44;;;14.83;78.29
1401;BME280;46518;48.842;8.926;2022-10-03T12:27:40;98147.84;;;14.96;79.59
1401;BME280;46518;48.842;8.926;2022-10-03T12:30:28;98151.41;;;15.06;79.79
1401;BME280;46518;48.842;8.926;2022-10-03T12:36:18;98144.25;;;15.07;78.29
1401;BME280;46518;48.842;8.926;2022-10-03T12:39:22;98148.19;;;15.04;75.45
1401;BME280;46518;48.842;8.926;2022-10-03T12:42:23;98142.91;;;15.04;74.99
1401;BME280;46518;48.842;8.926;2022-10-03T12:45:13;98137.66;;;15.09;74.52
1401;BME280;46518;48.842;8.926;2022-10-03T12:51:12;98132.44;;;15.20;74.00
1401;BME280;46518;48.842;8.926;2022-10-03T12:53:58;98123.19;;;15.22;73.30
1401;BME280;46518;48.842;8.926;2022-10-03T12:56:44;98135.75;;;15.32;73.69
1401;BME280;46518;48.842;8.926;2022-10-03T12:59:31;98131.78;;;15.35;73.62
1401;BME280;46518;48.842;8.926;2022-10-03T13:02:30;98127.31;;;15.35;74.26
1401;BME280;46518;48.842;8.926;2022-10-03T13:05:29;98123.66;;;15.41;74.42
1401;BME280;46518;48.842;8.926;2022-10-03T13:08:24;98113.63;;;15.48;74.46
1401;BME280;46518;48.842;8.926;2022-10-03T13:11:25;98111.22;;;15.47;74.24
1401;BME280;46518;48.842;8.926;2022-10-03T13:14:41;98119.97;;;15.47;74.13
1401;BME280;46518;48.842;8.926;2022-10-03T13:17:42;98119.84;;;15.32;72.97
1401;BME280;46518;48.842;8.926;2022-10-03T13:20:28;98114.66;;;15.15;72.96
1401;BME280;46518;48.842;8.926;2022-10-03T13:23:12;98118.19;;;15.26;72.83
1401;BME280;46518;48.842;8.926;2022-10-03T13:26:01;98118.09;;;15.16;70.64
1401;BME280;46518;48.842;8.926;2022-10-03T13:29:23;98119.22;;;15.25;71.42
1401;BME280;46518;48.842;8.926;2022-10-03T13:32:16;98119.88;;;15.37;72.47
1401;BME280;46518;48.842;8.926;2022-10-03T13:35:15;98108.84;;;15.45;72.77
1401;BME280;46518;48.842;8.926;2022-10-03T13:38:20;98113.16;;;15.57;72.44
1401;BME280;46518;48.842;8.926;2022-10-03T13:41:00;98107.31;;;15.54;71.46
1401;BME280;46518;48.842;8.926;2022-10-03T13:43:48;98109.47;;;15.58;70.66
1401;BME280;46518;48.842;8.926;2022-10-03T13:46:31;98112.91;;;15.58;70.99
1401;BME280;46518;48.842;8.926;2022-10-03T13:49:17;98110.56;;;15.62;70.77
1401;BME280;46518;48.842;8.926;2022-10-03T13:52:00;98108.97;;;15.61;70.79
1401;BME280;46518;48.842;8.926;2022-10-03T13:55:00;98105.72;;;15.53;70.38
1401;BME280;46518;48.842;8.926;2022-10-03T13:57:43;98104.84;;;15.43;70.13
1401;BME280;46518;48.842;8.926;2022-10-03T14:00:23;98107.19;;;15.39;70.28
1401;BME280;46518;48.842;8.926;2022-10-03T14:03:19;98096.88;;;15.43;70.36
1401;BME280;46518;48.842;8.926;2022-10-03T14:06:15;98091.66;;;15.53;71.01
1401;BME280;46518;48.842;8.926;2022-10-03T14:12:13;98089.19;;;15.46;70.86
1401;BME280;46518;48.842;8.926;2022-10-03T14:15:27;98089.16;;;15.41;71.05
1401;BME280;46518;48.842;8.926;2022-10-03T14:18:18;98088.06;;;15.37;71.03
1401;BME280;46518;48.842;8.926;2022-10-03T14:21:35;98091.03;;;15.41;71.40
1401;BME280;46518;48.842;8.926;2022-10-03T14:24:33;98085.19;;;15.44;71.65
1401;BME280;46518;48.842;8.926;2022-10-03T14:27:24;98086.03;;;15.49;71.59
1401;BME280;46518;48.842;8.926;2022-10-03T14:30:07;98085.03;;;15.56;72.36
1401;BME280;46518;48.842;8.926;2022-10-03T14:32:52;98081.63;;;15.60;72.13
1401;BME280;46518;48.842;8.926;2022-10-03T14:35:50;98075.53;;;15.65;71.27
1401;BME280;46518;48.842;8.926;2022-10-03T14:38:52;98073.44;;;15.67;70.66
1401;BME280;46518;48.842;8.926;2022-10-03T14:41:44;98072.41;;;15.68;69.77
1401;BME280;46518;48.842;8.926;2022-10-03T14:44:28;98071.91;;;15.71;70.58
1401;BME280;46518;48.842;8.926;2022-10-03T14:47:11;98074.06;;;15.74;70.47
1401;BME280;46518;48.842;8.926;2022-10-03T14:49:48;98070.63;;;15.79;70.23
1401;BME280;46518;48.842;8.926;2022-10-03T14:52:33;98077.53;;;15.80;69.71
1401;BME280;46518;48.842;8.926;2022-10-03T14:55:15;98075.66;;;15.75;68.94
1401;BME280;46518;48.842;8.926;2022-10-03T14:58:00;98069.50;;;15.69;67.68
1401;BME280;46518;48.842;8.926;2022-10-03T15:00:42;98063.88;;;15.66;67.91
1401;BME280;46518;48.842;8.926;2022-10-03T15:03:23;98061.22;;;15.66;67.56
1401;BME280;46518;48.842;8.926;2022-10-03T15:06:17;98067.09;;;15.68;68.29
1401;BME280;46518;48.842;8.926;2022-10-03T15:08:57;98069.72;;;15.63;68.16
1401;BME280;46518;48.842;8.926;2022-10-03T15:11:37;98068.09;;;15.62;68.23
1401;BME280;46518;48.842;8.926;2022-10-03T15:14:21;98068.34;;;15.55;67.96
1401;BME280;46518;48.842;8.926;2022-10-03T15:17:03;98066.72;;;15.54;67.98
1401;BME280;46518;48.842;8.926;2022-10-03T15:19:48;98073.63;;;15.55;68.24
1401;BME280;46518;48.842;8.926;2022-10-03T15:22:30;98073.13;;;15.58;68.85
1401;BME280;46518;48.842;8.926;2022-10-03T15:25:12;98066.72;;;15.54;68.37
1401;BME280;46518;48.842;8.926;2022-10-03T15:27:54;98066.44;;;15.50;68.20
1401;BME280;46518;48.842;8.926;2022-10-03T15:30:34;98067.16;;;15.41;66.25
1401;BME280;46518;48.842;8.926;2022-10-03T15:33:14;98070.84;;;15.40;66.17
1401;BME280;46518;48.842;8.926;2022-10-03T15:35:55;98056.22;;;15.37;66.09
1401;BME280;46518;48.842;8.926;2022-10-03T15:38:37;98064.13;;;15.32;66.42
1401;BME280;46518;48.842;8.926;2022-10-03T15:41:12;98059.84;;;15.26;67.46
1401;BME280;46518;48.842;8.926;2022-10-03T15:43:55;98057.44;;;15.24;67.33
1401;BME280;46518;48.842;8.926;2022-10-03T15:46:40;98056.13;;;15.27;67.86
1401;BME280;46518;48.842;8.926;2022-10-03T15:49:19;98056.13;;;15.27;67.75
1401;BME280;46518;48.842;8.926;2022-10-03T15:51:58;98053.53;;;15.32;67.64
1401;BME280;46518;48.842;8.926;2022-10-03T15:54:43;98059.94;;;15.36;68.79
1401;BME280;46518;48.842;8.926;2022-10-03T15:57:24;98053.31;;;15.39;69.71
1401;BME280;46518;48.842;8.926;2022-10-03T15:59:59;98052.53;;;15.38;69.77
1401;BME280;46518;48.842;8.926;2022-10-03T16:02:38;98050.91;;;15.37;69.82
1401;BME280;46518;48.842;8.926;2022-10-03T16:05:16;98054.09;;;15.34;69.46
1401;BME280;46518;48.842;8.926;2022-10-03T16:07:55;98055.34;;;15.26;68.36
1401;BME280;46518;48.842;8.926;2022-10-03T16:10:27;98059.34;;;15.29;68.65
1401;BME280;46518;48.842;8.926;2022-10-03T16:13:04;98058.03;;;15.31;69.37
1401;BME280;46518;48.842;8.926;2022-10-03T16:15:50;98046.69;;;15.36;70.45
1401;BME280;46518;48.842;8.926;2022-10-03T16:18:47;98047.97;;;15.34;70.75
1401;BME280;46518;48.842;8.926;2022-10-03T16:21:30;98038.69;;;15.31;71.47
1401;BME280;46518;48.842;8.926;2022-10-03T16:24:00;98030.91;;;15.24;71.91
1401;BME280;46518;48.842;8.926;2022-10-03T16:26:34;98043.63;;;15.22;70.97
1401;BME280;46518;48.842;8.926;2022-10-03T16:29:12;98030.28;;;15.12;71.19
1401;BME280;46518;48.842;8.926;2022-10-03T16:31:49;98037.44;;;15.12;70.98
1401;BME280;46518;48.842;8.926;2022-10-03T16:34:23;98047.44;;;15.04;71.49
1401;BME280;46518;48.842;8.926;2022-10-03T16:36:53;98043.41;;;14.97;73.02
1401;BME280;46518;48.842;8.926;2022-10-03T16:39:23;98043.13;;;14.93;72.57
1401;BME280;46518;48.842;8.926;2022-10-03T16:41:53;98046.19;;;14.85;73.19
1401;BME280;46518;48.842;8.926;2022-10-03T16:44:24;98055.66;;;14.76;74.81
1401;BME280;46518;48.842;8.926;2022-10-03T16:46:55;98059.50;;;14.63;75.61
1401;BME280;46518;48.842;8.926;2022-10-03T16:49:35;98069.72;;;14.54;75.33
1401;BME280;46518;48.842;8.926;2022-10-03T16:52:28;98067.34;;;14.36;76.74
1401;BME280;46518;48.842;8.926;2022-10-03T16:55:14;98066.91;;;14.22;77.49
1401;BME280;46518;48.842;8.926;2022-10-03T16:57:46;98062.66;;;14.21;78.09
1401;BME280;46518;48.842;8.926;2022-10-03T17:00:53;98060.63;;;14.06;78.84
1401;BME280;46518;48.842;8.926;2022-10-03T17:03:46;98045.63;;;13.95;80.38
1401;BME280;46518;48.842;8.926;2022-10-03T17:06:19;98035.31;;;13.93;81.28
1401;BME280;46518;48.842;8.926;2022-10-03T17:12:11;98043.81;;;13.78;81.83
1401;BME280;46518;48.842;8.926;2022-10-03T17:14:46;98042.31;;;13.66;81.74
1401;BME280;46518;48.842;8.926;2022-10-03T17:17:31;98045.03;;;13.54;82.27
1401;BME280;46518;48.842;8.926;2022-10-03T17:20:10;98040.53;;;13.37;83.07
1401;BME280;46518;48.842;8.926;2022-10-03T17:22:50;98034.94;;;13.34;84.09
1401;BME280;46518;48.842;8.926;2022-10-03T17:25:37;98035.78;;;13.23;84.79
1401;BME280;46518;48.842;8.926;2022-10-03T17:28:14;98037.84;;;13.04;85.02
1401;BME280;46518;48.842;8.926;2022-10-03T17:31:27;98040.00;;;13.07;85.37
1401;BME280;46518;48.842;8.926;2022-10-03T17:34:09;98038.88;;;13.03;85.13
1401;BME280;46518;48.842;8.926;2022-10-03T17:37:15;98039.75;;;12.91;84.31
1401;BME280;46518;48.842;8.926;2022-10-03T17:39:54;98044.06;;;12.81;83.82
1401;BME280;46518;48.842;8.926;2022-10-03T17:42:32;98046.97;;;12.67;84.28
1401;BME280;46518;48.842;8.926;2022-10-03T17:45:18;98049.94;;;12.71;84.77
1401;BME280;46518;48.842;8.926;2022-10-03T17:47:57;98037.44;;;12.66;85.17
1401;BME280;46518;48.842;8.926;2022-10-03T17:50:37;98036.41;;;12.67;85.25
1401;BME280;46518;48.842;8.926;2022-10-03T17:53:21;98041.09;;;12.65;85.40
1401;BME280;46518;48.842;8.926;2022-10-03T17:55:57;98016.47;;;12.48;84.77
1401;BME280;46518;48.842;8.926;2022-10-03T17:58:34;98031.19;;;12.56;84.88
1401;BME280;46518;48.842;8.926;2022-10-03T18:01:12;98039.44;;;12.47;84.09
1401;BME280;46518;48.842;8.926;2022-10-03T18:03:57;98027.69;;;12.38;84.65
1401;BME280;46518;48.842;8.926;2022-10-03T18:06:46;98028.28;;;12.28;84.67
1401;BME280;46518;48.842;8.926;2022-10-03T18:09:32;98017.72;;;12.28;85.69
1401;BME280;46518;48.842;8.926;2022-10-03T18:12:21;98022.16;;;12.28;86.51
1401;BME280;46518;48.842;8.926;2022-10-03T18:15:24;98020.69;;;12.20;86.72
1401;BME280;46518;48.842;8.926;2022-10-03T18:18:43;98013.16;;;12.12;86.23
1401;BME280;46518;48.842;8.926;2022-10-03T18:24:55;98011.78;;;11.98;86.13
1401;BME280;46518;48.842;8.926;2022-10-03T18:30:57;98016.72;;;11.82;86.46
1401;BME280;46518;48.842;8.926;2022-10-03T18:33:43;98014.31;;;11.81;86.43
1401;BME280;46518;48.842;8.926;2022-10-03T18:36:24;98015.81;;;11.77;86.65
1401;BME280;46518;48.842;8.926;2022-10-03T18:39:06;98011.00;;;11.74;86.63
1401;BME280;46518;48.842;8.926;2022-10-03T18:41:51;98022.81;;;11.71;86.25
1401;BME280;46518;48.842;8.926;2022-10-03T18:44:29;98021.41;;;11.57;86.26
1401;BME280;46518;48.842;8.926;2022-10-03T18:47:18;98006.53;;;11.51;86.57
1401;BME280;46518;48.842;8.926;2022-10-03T18:50:02;98026.22;;;11.48;86.76
1401;BME280;46518;48.842;8.926;2022-10-03T18:52:43;98021.09;;;11.53;88.33